createdAt,value
2017-08-28T00:00:59.101Z,0
2017-08-28T00:01:59.288Z,0
2017-08-28T00:02:58.441Z,0
2017-08-28T00:03:59.068Z,0
2017-08-28T00:04:58.087Z,0
2017-08-28T00:05:58.722Z,0
2017-08-28T00:06:58.708Z,0
2017-08-28T00:07:58.694Z,0
2017-08-28T00:08:58.684Z,0
2017-08-28T00:09:58.354Z,0
2017-08-28T00:10:58.659Z,0
2017-08-28T00:11:58.650Z,0
2017-08-28T00:12:58.318Z,0
2017-08-28T00:13:58.634Z,0
2017-08-28T00:14:58.932Z,0
2017-08-28T00:15:58.282Z,0
2017-08-28T00:16:58.915Z,0
2017-08-28T00:17:57.938Z,0
2017-08-28T00:18:58.570Z,0
2017-08-28T00:19:57.921Z,0
2017-08-28T00:20:58.221Z,0
2017-08-28T00:21:58.211Z,0
2017-08-28T00:22:58.840Z,0
2017-08-28T00:23:58.860Z,0
2017-08-28T00:24:58.514Z,0
2017-08-28T00:25:58.159Z,0
2017-08-28T00:26:58.148Z,0
2017-08-28T00:27:58.137Z,0
2017-08-28T00:28:58.444Z,0
2017-08-28T00:29:57.789Z,0
2017-08-28T00:30:58.743Z,0
2017-08-28T00:31:58.734Z,0
2017-08-28T00:32:58.728Z,0
2017-08-28T00:33:58.379Z,0
2017-08-28T00:34:58.051Z,0
2017-08-28T00:35:58.042Z,0
2017-08-28T00:36:58.343Z,0
2017-08-28T00:37:58.017Z,0
2017-08-28T00:38:58.042Z,0
2017-08-28T00:39:58.346Z,0
2017-08-28T00:40:58.019Z,0
2017-08-28T00:41:58.332Z,0
2017-08-28T00:42:58.603Z,0
2017-08-28T00:43:57.943Z,0
2017-08-28T00:44:57.933Z,0
2017-08-28T00:45:57.913Z,0
2017-08-28T00:46:58.228Z,0
2017-08-28T00:47:58.216Z,0
2017-08-28T00:48:57.560Z,0
2017-08-28T00:49:58.207Z,0
2017-08-28T00:50:58.497Z,0
2017-08-28T00:51:58.163Z,0
2017-08-28T00:52:57.835Z,0
2017-08-28T00:53:57.495Z,0
2017-08-28T00:54:57.480Z,0
2017-08-28T00:55:58.113Z,0
2017-08-28T00:56:58.109Z,0
2017-08-28T00:57:58.103Z,0
2017-08-28T00:58:58.077Z,0
2017-08-28T00:59:58.385Z,0
2017-08-28T01:00:58.370Z,0
2017-08-28T01:01:57.718Z,0
2017-08-28T01:02:57.714Z,0
2017-08-28T01:03:57.696Z,0
2017-08-28T01:04:57.683Z,0
2017-08-28T01:05:57.985Z,0
2017-08-28T01:06:57.980Z,0
2017-08-28T01:07:58.298Z,0
2017-08-28T01:08:57.953Z,0
2017-08-28T01:09:58.258Z,0
2017-08-28T01:10:57.605Z,0
2017-08-28T01:11:57.921Z,0
2017-08-28T01:12:57.581Z,0
2017-08-28T01:13:57.572Z,0
2017-08-28T01:14:57.574Z,0
2017-08-28T01:15:57.540Z,0
2017-08-28T01:16:57.535Z,0
2017-08-28T01:17:57.845Z,0
2017-08-28T01:18:58.156Z,0
2017-08-28T01:19:57.502Z,0
2017-08-28T01:20:57.482Z,0
2017-08-28T01:21:57.469Z,0
2017-08-28T01:22:57.455Z,0
2017-08-28T01:23:57.776Z,0
2017-08-28T01:24:57.110Z,0
2017-08-28T01:25:57.747Z,0
2017-08-28T01:26:57.726Z,0
2017-08-28T01:27:57.711Z,0
2017-08-28T01:28:57.382Z,0
2017-08-28T01:29:57.690Z,0
2017-08-28T01:30:57.358Z,0
2017-08-28T01:31:57.670Z,0
2017-08-28T01:32:57.334Z,0
2017-08-28T01:33:57.642Z,0
2017-08-28T01:34:57.311Z,0
2017-08-28T01:35:57.295Z,0
2017-08-28T01:36:56.965Z,0
2017-08-28T01:37:57.275Z,0
2017-08-28T01:38:57.257Z,0
2017-08-28T01:39:57.565Z,0
2017-08-28T01:40:57.242Z,0
2017-08-28T01:41:57.222Z,0
2017-08-28T01:42:57.217Z,0
2017-08-28T01:43:56.874Z,0
2017-08-28T01:44:57.180Z,0
2017-08-28T01:45:57.486Z,0
2017-08-28T01:46:57.486Z,0
2017-08-28T01:47:57.142Z,0
2017-08-28T01:48:57.137Z,0
2017-08-28T01:49:57.468Z,0
2017-08-28T01:50:57.109Z,0
2017-08-28T01:51:57.094Z,0
2017-08-28T01:52:57.406Z,0
2017-08-28T01:53:57.392Z,0
2017-08-28T01:54:57.056Z,0
2017-08-28T01:55:57.685Z,0
2017-08-28T01:56:57.356Z,0
2017-08-28T01:57:57.349Z,0
2017-08-28T01:58:57.651Z,0
2017-08-28T01:59:57.312Z,0
2017-08-28T02:00:57.351Z,0
2017-08-28T02:01:56.973Z,0
2017-08-28T02:02:57.481Z,0
2017-08-28T02:03:56.981Z,0
2017-08-28T02:04:57.253Z,0
2017-08-28T02:05:57.236Z,0
2017-08-28T02:06:56.905Z,0
2017-08-28T02:07:56.900Z,0
2017-08-28T02:08:57.201Z,0
2017-08-28T02:09:56.549Z,0
2017-08-28T02:10:56.856Z,0
2017-08-28T02:11:57.167Z,0
2017-08-28T02:12:56.830Z,0
2017-08-28T02:13:56.499Z,0
2017-08-28T02:14:56.806Z,0
2017-08-28T02:15:57.467Z,0
2017-08-28T02:16:57.112Z,0
2017-08-28T02:17:56.778Z,0
2017-08-28T02:18:56.786Z,0
2017-08-28T02:19:57.384Z,0
2017-08-28T02:20:56.414Z,0
2017-08-28T02:21:57.047Z,0
2017-08-28T02:22:57.038Z,0
2017-08-28T02:23:56.697Z,0
2017-08-28T02:24:56.682Z,0
2017-08-28T02:25:56.991Z,0
2017-08-28T02:26:56.978Z,0
2017-08-28T02:27:57.288Z,0
2017-08-28T02:28:56.311Z,0
2017-08-28T02:29:56.623Z,0
2017-08-28T02:30:57.260Z,0
2017-08-28T02:31:56.271Z,0
2017-08-28T02:32:56.263Z,0
2017-08-28T02:33:57.210Z,0
2017-08-28T02:34:56.882Z,0
2017-08-28T02:35:56.549Z,0
2017-08-28T02:36:56.853Z,0
2017-08-28T02:37:56.198Z,0
2017-08-28T02:38:56.190Z,0
2017-08-28T02:39:56.552Z,0
2017-08-28T02:40:56.806Z,0
2017-08-28T02:41:57.130Z,0
2017-08-28T02:42:56.464Z,0
2017-08-28T02:43:56.440Z,0
2017-08-28T02:44:56.442Z,0
2017-08-28T02:45:56.104Z,0
2017-08-28T02:46:56.403Z,0
2017-08-28T02:47:56.404Z,0
2017-08-28T02:48:56.411Z,0
2017-08-28T02:49:56.703Z,0
2017-08-28T02:50:56.695Z,0
2017-08-28T02:51:56.346Z,0
2017-08-28T02:52:56.652Z,0
2017-08-28T02:53:56.636Z,0
2017-08-28T02:54:56.632Z,0
2017-08-28T02:55:56.932Z,0
2017-08-28T02:56:56.280Z,0
2017-08-28T02:57:56.909Z,0
2017-08-28T02:58:56.575Z,0
2017-08-28T02:59:56.559Z,0
2017-08-28T03:00:56.232Z,0
2017-08-28T03:01:55.897Z,0
2017-08-28T03:02:56.522Z,0
2017-08-28T03:03:55.871Z,0
2017-08-28T03:04:56.497Z,0
2017-08-28T03:05:56.485Z,0
2017-08-28T03:06:56.488Z,0
2017-08-28T03:07:56.457Z,0
2017-08-28T03:08:56.771Z,0
2017-08-28T03:09:55.792Z,0
2017-08-28T03:10:56.103Z,0
2017-08-28T03:11:56.734Z,0
2017-08-28T03:12:56.397Z,0
2017-08-28T03:13:56.701Z,0
2017-08-28T03:14:56.380Z,0
2017-08-28T03:15:56.360Z,0
2017-08-28T03:16:56.346Z,0
2017-08-28T03:17:56.014Z,0
2017-08-28T03:18:56.318Z,0
2017-08-28T03:19:56.633Z,0
2017-08-28T03:20:55.980Z,0
2017-08-28T03:21:55.962Z,0
2017-08-28T03:22:56.588Z,0
2017-08-28T03:23:55.932Z,0
2017-08-28T03:24:56.244Z,0
2017-08-28T03:25:56.243Z,0
2017-08-28T03:26:56.226Z,0
2017-08-28T03:27:56.206Z,0
2017-08-28T03:28:56.197Z,0
2017-08-28T03:29:56.174Z,0
2017-08-28T03:30:56.173Z,0
2017-08-28T03:31:56.161Z,0
2017-08-28T03:32:55.513Z,0
2017-08-28T03:33:56.137Z,0
2017-08-28T03:34:55.796Z,0
2017-08-28T03:35:56.100Z,0
2017-08-28T03:36:56.096Z,0
2017-08-28T03:37:55.441Z,0
2017-08-28T03:38:56.088Z,0
2017-08-28T03:39:55.731Z,0
2017-08-28T03:40:55.721Z,0
2017-08-28T03:41:55.396Z,0
2017-08-28T03:42:56.018Z,0
2017-08-28T03:43:56.000Z,0
2017-08-28T03:44:55.661Z,0
2017-08-28T03:45:55.655Z,0
2017-08-28T03:46:56.283Z,0
2017-08-28T03:47:55.624Z,0
2017-08-28T03:48:55.616Z,0
2017-08-28T03:49:55.600Z,0
2017-08-28T03:50:56.240Z,0
2017-08-28T03:51:55.900Z,0
2017-08-28T03:52:55.890Z,0
2017-08-28T03:53:55.589Z,0
2017-08-28T03:54:55.869Z,0
2017-08-28T03:55:55.845Z,0
2017-08-28T03:56:55.515Z,0
2017-08-28T03:57:55.500Z,0
2017-08-28T03:58:55.810Z,0
2017-08-28T03:59:55.794Z,0
2017-08-28T04:00:55.461Z,0
2017-08-28T04:01:55.126Z,0
2017-08-28T04:02:55.317Z,0
2017-08-28T04:03:55.423Z,0
2017-08-28T04:04:55.411Z,0
2017-08-28T04:05:56.048Z,0
2017-08-28T04:06:55.405Z,0
2017-08-28T04:07:55.691Z,4
2017-08-28T04:08:55.361Z,4
2017-08-28T04:09:55.343Z,4
2017-08-28T04:10:55.017Z,0
2017-08-28T04:11:55.643Z,4
2017-08-28T04:12:55.947Z,4
2017-08-28T04:13:55.301Z,4
2017-08-28T04:14:54.960Z,8
2017-08-28T04:15:55.262Z,8
2017-08-28T04:16:55.253Z,8
2017-08-28T04:17:55.925Z,8
2017-08-28T04:18:55.224Z,12
2017-08-28T04:19:54.895Z,16
2017-08-28T04:20:55.523Z,16
2017-08-28T04:21:55.190Z,20
2017-08-28T04:22:55.182Z,24
2017-08-28T04:23:55.161Z,24
2017-08-28T04:24:55.792Z,28
2017-08-28T04:25:55.142Z,36
2017-08-28T04:26:55.131Z,36
2017-08-28T04:27:54.796Z,40
2017-08-28T04:28:54.783Z,48
2017-08-28T04:29:55.408Z,52
2017-08-28T04:30:55.075Z,60
2017-08-28T04:31:55.385Z,72
2017-08-28T04:32:54.722Z,76
2017-08-28T04:33:54.711Z,88
2017-08-28T04:34:55.345Z,96
2017-08-28T04:35:54.685Z,104
2017-08-28T04:36:55.314Z,116
2017-08-28T04:37:55.300Z,128
2017-08-28T04:38:55.615Z,140
2017-08-28T04:39:54.636Z,156
2017-08-28T04:40:54.948Z,168
2017-08-28T04:41:55.252Z,180
2017-08-28T04:42:55.563Z,192
2017-08-28T04:43:54.905Z,208
2017-08-28T04:44:55.212Z,220
2017-08-28T04:45:54.903Z,240
2017-08-28T04:46:55.187Z,256
2017-08-28T04:47:55.175Z,268
2017-08-28T04:48:55.161Z,284
2017-08-28T04:49:54.502Z,304
2017-08-28T04:50:55.141Z,324
2017-08-28T04:51:54.808Z,344
2017-08-28T04:52:55.106Z,364
2017-08-28T04:53:55.104Z,388
2017-08-28T04:54:54.764Z,408
2017-08-28T04:55:54.756Z,432
2017-08-28T04:56:54.737Z,452
2017-08-28T04:57:55.044Z,472
2017-08-28T04:58:55.351Z,496
2017-08-28T04:59:55.351Z,520
2017-08-28T05:00:54.702Z,544
2017-08-28T05:01:54.994Z,564
2017-08-28T05:02:54.338Z,588
2017-08-28T05:03:54.664Z,612
2017-08-28T05:04:54.960Z,632
2017-08-28T05:05:54.942Z,656
2017-08-28T05:06:54.608Z,684
2017-08-28T05:07:54.596Z,704
2017-08-28T05:08:54.902Z,728
2017-08-28T05:09:54.569Z,752
2017-08-28T05:10:55.217Z,772
2017-08-28T05:11:54.864Z,796
2017-08-28T05:12:54.530Z,820
2017-08-28T05:13:54.840Z,844
2017-08-28T05:14:54.503Z,868
2017-08-28T05:15:54.505Z,888
2017-08-28T05:16:54.481Z,916
2017-08-28T05:17:54.471Z,940
2017-08-28T05:18:54.131Z,960
2017-08-28T05:19:54.774Z,988
2017-08-28T05:20:54.431Z,1008
2017-08-28T05:21:54.417Z,1028
2017-08-28T05:22:54.722Z,1056
2017-08-28T05:23:54.707Z,1072
2017-08-28T05:24:54.695Z,1092
2017-08-28T05:25:54.366Z,1120
2017-08-28T05:26:54.351Z,1140
2017-08-28T05:27:54.667Z,1164
2017-08-28T05:28:54.656Z,1188
2017-08-28T05:29:54.958Z,1208
2017-08-28T05:30:54.945Z,1232
2017-08-28T05:31:54.287Z,1252
2017-08-28T05:32:54.592Z,1276
2017-08-28T05:33:54.264Z,1300
2017-08-28T05:34:53.926Z,1320
2017-08-28T05:35:54.233Z,1340
2017-08-28T05:36:54.544Z,1360
2017-08-28T05:37:54.536Z,1376
2017-08-28T05:38:54.894Z,1396
2017-08-28T05:39:54.188Z,1412
2017-08-28T05:40:54.182Z,1432
2017-08-28T05:41:54.159Z,1456
2017-08-28T05:42:54.151Z,1476
2017-08-28T05:43:54.825Z,1492
2017-08-28T05:44:54.445Z,1504
2017-08-28T05:45:54.108Z,1520
2017-08-28T05:46:54.421Z,1536
2017-08-28T05:47:53.762Z,1552
2017-08-28T05:48:54.394Z,1564
2017-08-28T05:49:54.061Z,1576
2017-08-28T05:50:54.692Z,1592
2017-08-28T05:51:54.357Z,1604
2017-08-28T05:52:54.668Z,1620
2017-08-28T05:53:54.009Z,1640
2017-08-28T05:54:54.638Z,1656
2017-08-28T05:55:53.981Z,1672
2017-08-28T05:56:53.648Z,1684
2017-08-28T05:57:53.965Z,1700
2017-08-28T05:58:53.950Z,1716
2017-08-28T05:59:54.259Z,1732
2017-08-28T06:00:53.926Z,1740
2017-08-28T06:01:53.906Z,1756
2017-08-28T06:02:54.425Z,1768
2017-08-28T06:03:53.889Z,1784
2017-08-28T06:04:53.873Z,1800
2017-08-28T06:05:54.183Z,1820
2017-08-28T06:06:53.851Z,1840
2017-08-28T06:07:54.516Z,1860
2017-08-28T06:08:53.507Z,1876
2017-08-28T06:09:54.503Z,1896
2017-08-28T06:10:53.799Z,1916
2017-08-28T06:11:54.109Z,1932
2017-08-28T06:12:54.101Z,1948
2017-08-28T06:13:53.762Z,1964
2017-08-28T06:14:53.771Z,1976
2017-08-28T06:15:53.737Z,1988
2017-08-28T06:16:53.406Z,2004
2017-08-28T06:17:53.710Z,2020
2017-08-28T06:18:54.345Z,2044
2017-08-28T06:19:53.688Z,2060
2017-08-28T06:20:53.355Z,2072
2017-08-28T06:21:53.665Z,2084
2017-08-28T06:22:53.654Z,2104
2017-08-28T06:23:54.293Z,2116
2017-08-28T06:24:53.632Z,2132
2017-08-28T06:25:54.257Z,2152
2017-08-28T06:26:53.603Z,2160
2017-08-28T06:27:53.916Z,2180
2017-08-28T06:28:53.581Z,2192
2017-08-28T06:29:53.247Z,2212
2017-08-28T06:30:53.554Z,2220
2017-08-28T06:31:53.867Z,2240
2017-08-28T06:32:53.854Z,2252
2017-08-28T06:33:53.840Z,2188
2017-08-28T06:34:53.513Z,2280
2017-08-28T06:35:53.502Z,2296
2017-08-28T06:36:54.130Z,2320
2017-08-28T06:37:53.796Z,2336
2017-08-28T06:38:53.781Z,2356
2017-08-28T06:39:53.778Z,2372
2017-08-28T06:40:53.754Z,2392
2017-08-28T06:41:53.425Z,2412
2017-08-28T06:42:53.736Z,2440
2017-08-28T06:43:53.401Z,2464
2017-08-28T06:44:53.393Z,2484
2017-08-28T06:45:53.733Z,2504
2017-08-28T06:46:54.012Z,2524
2017-08-28T06:47:53.360Z,2548
2017-08-28T06:48:53.664Z,2564
2017-08-28T06:49:53.656Z,2584
2017-08-28T06:50:53.650Z,2604
2017-08-28T06:51:53.643Z,2620
2017-08-28T06:52:53.307Z,2640
2017-08-28T06:53:53.293Z,2660
2017-08-28T06:54:53.279Z,2676
2017-08-28T06:55:53.919Z,2688
2017-08-28T06:56:53.255Z,2704
2017-08-28T06:57:53.568Z,2724
2017-08-28T06:58:53.577Z,2732
2017-08-28T06:59:53.222Z,2748
2017-08-28T07:00:53.855Z,2764
2017-08-28T07:01:53.206Z,2784
2017-08-28T07:02:53.184Z,2808
2017-08-28T07:03:53.172Z,2820
2017-08-28T07:04:53.220Z,2848
2017-08-28T07:05:53.152Z,2876
2017-08-28T07:06:53.469Z,2900
2017-08-28T07:07:53.129Z,2916
2017-08-28T07:08:53.122Z,2932
2017-08-28T07:09:53.430Z,2956
2017-08-28T07:10:53.417Z,2976
2017-08-28T07:11:53.408Z,3000
2017-08-28T07:12:53.717Z,3012
2017-08-28T07:13:53.065Z,3032
2017-08-28T07:14:53.696Z,3048
2017-08-28T07:15:53.045Z,3060
2017-08-28T07:16:53.027Z,3064
2017-08-28T07:17:53.342Z,3076
2017-08-28T07:18:53.332Z,3088
2017-08-28T07:19:53.022Z,3092
2017-08-28T07:20:52.990Z,3092
2017-08-28T07:21:53.299Z,3104
2017-08-28T07:22:52.644Z,3104
2017-08-28T07:23:53.272Z,3108
2017-08-28T07:24:53.587Z,3108
2017-08-28T07:25:53.581Z,3112
2017-08-28T07:26:52.921Z,3116
2017-08-28T07:27:52.918Z,3124
2017-08-28T07:28:53.545Z,3132
2017-08-28T07:29:53.215Z,3136
2017-08-28T07:30:53.203Z,3152
2017-08-28T07:31:52.874Z,3172
2017-08-28T07:32:53.205Z,3184
2017-08-28T07:33:53.184Z,3196
2017-08-28T07:34:52.523Z,3216
2017-08-28T07:35:52.826Z,3236
2017-08-28T07:36:52.501Z,3236
2017-08-28T07:37:53.145Z,3244
2017-08-28T07:38:53.119Z,3260
2017-08-28T07:39:53.109Z,3280
2017-08-28T07:40:53.104Z,3304
2017-08-28T07:41:52.768Z,3320
2017-08-28T07:42:52.805Z,3340
2017-08-28T07:43:53.085Z,3372
2017-08-28T07:44:53.094Z,3396
2017-08-28T07:45:52.726Z,3408
2017-08-28T07:46:53.038Z,3428
2017-08-28T07:47:53.044Z,3440
2017-08-28T07:48:52.697Z,3456
2017-08-28T07:49:52.682Z,3468
2017-08-28T07:50:52.989Z,3476
2017-08-28T07:51:52.665Z,3484
2017-08-28T07:52:52.652Z,3488
2017-08-28T07:53:52.329Z,3492
2017-08-28T07:54:52.318Z,3508
2017-08-28T07:55:52.634Z,3540
2017-08-28T07:56:52.617Z,3576
2017-08-28T07:57:52.285Z,3600
2017-08-28T07:58:53.241Z,3636
2017-08-28T07:59:52.909Z,3692
2017-08-28T08:00:52.574Z,3764
2017-08-28T08:01:52.569Z,3824
2017-08-28T08:02:53.082Z,3880
2017-08-28T08:03:52.232Z,3936
2017-08-28T08:04:53.182Z,3968
2017-08-28T08:05:52.856Z,3976
2017-08-28T08:06:52.523Z,3952
2017-08-28T08:07:52.186Z,3912
2017-08-28T08:08:52.828Z,3892
2017-08-28T08:09:52.811Z,3900
2017-08-28T08:10:52.804Z,3944
2017-08-28T08:11:52.818Z,3972
2017-08-28T08:12:52.808Z,3984
2017-08-28T08:13:52.776Z,5968
2017-08-28T08:14:53.086Z,14096
2017-08-28T08:15:53.079Z,15012
2017-08-28T08:16:52.748Z,8236
2017-08-28T08:17:52.734Z,6944
2017-08-28T08:18:52.732Z,4796
2017-08-28T08:19:52.404Z,4348
2017-08-28T08:20:52.709Z,4284
2017-08-28T08:21:52.705Z,4064
2017-08-28T08:22:52.692Z,6728
2017-08-28T08:23:52.690Z,11656
2017-08-28T08:24:52.681Z,14308
2017-08-28T08:25:52.985Z,15752
2017-08-28T08:26:52.357Z,18048
2017-08-28T08:27:52.653Z,17312
2017-08-28T08:28:52.667Z,13928
2017-08-28T08:29:52.974Z,10316
2017-08-28T08:30:52.948Z,7128
2017-08-28T08:31:52.945Z,5852
2017-08-28T08:32:52.615Z,4560
2017-08-28T08:33:52.599Z,4268
2017-08-28T08:34:52.911Z,4268
2017-08-28T08:35:52.268Z,4356
2017-08-28T08:36:52.577Z,4492
2017-08-28T08:37:52.255Z,4836
2017-08-28T08:38:52.236Z,4936
2017-08-28T08:39:51.913Z,4608
2017-08-28T08:40:52.223Z,4600
2017-08-28T08:41:52.254Z,4624
2017-08-28T08:42:52.206Z,4664
2017-08-28T08:43:52.202Z,4744
2017-08-28T08:44:51.874Z,5064
2017-08-28T08:45:52.187Z,6740
2017-08-28T08:46:51.853Z,8612
2017-08-28T08:47:52.172Z,5224
2017-08-28T08:48:52.485Z,5324
2017-08-28T08:49:51.837Z,5576
2017-08-28T08:50:52.793Z,5660
2017-08-28T08:51:52.462Z,4956
2017-08-28T08:52:52.455Z,5104
2017-08-28T08:53:52.446Z,5112
2017-08-28T08:54:52.760Z,5416
2017-08-28T08:55:52.433Z,4984
2017-08-28T08:56:52.748Z,4904
2017-08-28T08:57:52.414Z,4808
2017-08-28T08:58:52.085Z,4768
2017-08-28T08:59:52.086Z,4620
2017-08-28T09:00:51.773Z,4612
2017-08-28T09:01:52.396Z,4644
2017-08-28T09:02:52.058Z,4660
2017-08-28T09:03:52.371Z,4580
2017-08-28T09:04:52.041Z,4564
2017-08-28T09:05:52.683Z,4856
2017-08-28T09:06:52.349Z,4524
2017-08-28T09:07:52.342Z,4544
2017-08-28T09:08:51.695Z,4556
2017-08-28T09:09:52.336Z,4660
2017-08-28T09:10:52.011Z,4668
2017-08-28T09:11:52.636Z,4620
2017-08-28T09:12:52.304Z,4608
2017-08-28T09:13:51.982Z,4628
2017-08-28T09:14:51.969Z,4800
2017-08-28T09:15:52.287Z,8512
2017-08-28T09:16:52.600Z,9364
2017-08-28T09:17:51.961Z,7108
2017-08-28T09:18:51.953Z,5436
2017-08-28T09:19:51.611Z,5320
2017-08-28T09:20:51.926Z,4956
2017-08-28T09:21:51.928Z,6388
2017-08-28T09:22:51.926Z,11148
2017-08-28T09:23:52.243Z,21408
2017-08-28T09:24:52.227Z,9988
2017-08-28T09:25:51.942Z,9892
2017-08-28T09:26:52.538Z,8832
2017-08-28T09:27:52.520Z,13432
2017-08-28T09:28:52.198Z,15348
2017-08-28T09:29:51.544Z,7544
2017-08-28T09:30:52.189Z,6812
2017-08-28T09:31:52.189Z,5908
2017-08-28T09:32:52.493Z,5440
2017-08-28T09:33:52.494Z,5692
2017-08-28T09:34:51.833Z,5936
2017-08-28T09:35:51.832Z,6988
2017-08-28T09:36:51.822Z,5624
2017-08-28T09:37:51.818Z,5160
2017-08-28T09:38:51.492Z,6460
2017-08-28T09:39:51.480Z,5980
2017-08-28T09:40:52.453Z,5536
2017-08-28T09:41:51.788Z,5548
2017-08-28T09:42:51.786Z,5560
2017-08-28T09:43:51.781Z,5500
2017-08-28T09:44:51.771Z,5440
2017-08-28T09:45:52.406Z,5448
2017-08-28T09:46:52.405Z,5404
2017-08-28T09:47:52.078Z,5388
2017-08-28T09:48:51.754Z,5916
2017-08-28T09:49:51.741Z,5380
2017-08-28T09:50:51.730Z,5368
2017-08-28T09:51:51.725Z,5380
2017-08-28T09:52:51.718Z,5388
2017-08-28T09:53:51.389Z,5428
2017-08-28T09:54:51.714Z,5456
2017-08-28T09:55:52.016Z,5396
2017-08-28T09:56:52.024Z,5448
2017-08-28T09:57:52.000Z,5428
2017-08-28T09:58:51.676Z,5492
2017-08-28T09:59:52.351Z,5580
2017-08-28T10:00:51.664Z,5584
2017-08-28T10:01:51.976Z,5624
2017-08-28T10:02:52.177Z,5588
2017-08-28T10:03:51.967Z,5540
2017-08-28T10:04:51.321Z,5540
2017-08-28T10:05:51.633Z,5628
2017-08-28T10:06:51.952Z,5616
2017-08-28T10:07:52.271Z,5640
2017-08-28T10:08:51.938Z,5672
2017-08-28T10:09:51.608Z,5704
2017-08-28T10:10:51.925Z,5732
2017-08-28T10:11:51.955Z,6108
2017-08-28T10:12:51.270Z,6140
2017-08-28T10:13:51.585Z,6500
2017-08-28T10:14:51.901Z,5748
2017-08-28T10:15:51.893Z,5784
2017-08-28T10:16:51.561Z,5792
2017-08-28T10:17:51.575Z,5828
2017-08-28T10:18:51.562Z,5844
2017-08-28T10:19:51.863Z,5828
2017-08-28T10:20:51.878Z,5864
2017-08-28T10:21:51.532Z,5864
2017-08-28T10:22:51.217Z,5944
2017-08-28T10:23:51.517Z,7160
2017-08-28T10:24:51.519Z,8132
2017-08-28T10:25:52.168Z,6704
2017-08-28T10:26:51.179Z,6148
2017-08-28T10:27:51.502Z,6820
2017-08-28T10:28:51.172Z,6984
2017-08-28T10:29:51.485Z,6528
2017-08-28T10:30:51.475Z,6456
2017-08-28T10:31:51.788Z,11164
2017-08-28T10:32:51.795Z,9664
2017-08-28T10:33:51.459Z,6676
2017-08-28T10:34:51.455Z,6660
2017-08-28T10:35:51.768Z,6520
2017-08-28T10:36:51.121Z,6704
2017-08-28T10:37:51.754Z,8364
2017-08-28T10:38:51.427Z,8640
2017-08-28T10:39:51.422Z,6748
2017-08-28T10:40:51.423Z,8068
2017-08-28T10:41:51.411Z,7384
2017-08-28T10:42:51.404Z,6636
2017-08-28T10:43:51.403Z,6684
2017-08-28T10:44:51.405Z,7224
2017-08-28T10:45:51.721Z,8180
2017-08-28T10:46:51.065Z,7208
2017-08-28T10:47:51.382Z,6768
2017-08-28T10:48:52.015Z,6836
2017-08-28T10:49:51.048Z,7068
2017-08-28T10:50:52.005Z,7440
2017-08-28T10:51:52.022Z,7824
2017-08-28T10:52:51.991Z,7992
2017-08-28T10:53:51.661Z,8376
2017-08-28T10:54:51.668Z,8312
2017-08-28T10:55:51.651Z,8760
2017-08-28T10:56:51.645Z,9608
2017-08-28T10:57:51.644Z,17448
2017-08-28T10:58:51.352Z,22912
2017-08-28T10:59:50.990Z,36896
2017-08-28T11:00:51.306Z,22880
2017-08-28T11:01:51.305Z,15720
2017-08-28T11:02:51.621Z,14008
2017-08-28T11:03:51.616Z,20960
2017-08-28T11:04:51.605Z,29472
2017-08-28T11:05:51.628Z,35552
2017-08-28T11:06:51.604Z,51136
2017-08-28T11:07:51.598Z,72352
2017-08-28T11:08:51.294Z,75392
2017-08-28T11:09:51.265Z,72704
2017-08-28T11:10:51.262Z,74752
2017-08-28T11:11:51.911Z,63712
2017-08-28T11:12:51.582Z,42688
2017-08-28T11:13:51.584Z,45024
2017-08-28T11:14:51.264Z,38816
2017-08-28T11:15:51.896Z,31488
2017-08-28T11:16:51.577Z,30784
2017-08-28T11:17:51.290Z,41920
2017-08-28T11:18:51.574Z,47968
2017-08-28T11:19:51.564Z,64096
2017-08-28T11:20:51.587Z,57056
2017-08-28T11:21:51.245Z,72352
2017-08-28T11:22:51.894Z,81824
2017-08-28T11:23:51.246Z,83744
2017-08-28T11:24:51.269Z,81024
2017-08-28T11:25:51.249Z,67552
2017-08-28T11:26:51.576Z,75680
2017-08-28T11:27:51.248Z,69184
2017-08-28T11:28:51.257Z,76512
2017-08-28T11:29:51.574Z,76928
2017-08-28T11:30:51.900Z,76256
2017-08-28T11:31:51.904Z,76096
2017-08-28T11:32:51.581Z,73376
2017-08-28T11:33:51.266Z,64608
2017-08-28T11:34:51.273Z,66624
2017-08-28T11:35:51.275Z,78048
2017-08-28T11:36:51.921Z,81920
2017-08-28T11:37:51.281Z,81568
2017-08-28T11:38:51.931Z,85824
2017-08-28T11:39:51.292Z,80448
2017-08-28T11:40:51.296Z,81824
2017-08-28T11:41:50.982Z,82496
2017-08-28T11:42:51.627Z,83840
2017-08-28T11:43:51.630Z,78912
2017-08-28T11:44:51.653Z,78208
2017-08-28T11:45:51.644Z,78496
2017-08-28T11:46:51.682Z,79328
2017-08-28T11:47:51.011Z,82112
2017-08-28T11:48:51.338Z,84832
2017-08-28T11:49:51.357Z,87296
2017-08-28T11:50:51.351Z,87136
2017-08-28T11:51:51.673Z,86112
2017-08-28T11:52:51.360Z,85152
2017-08-28T11:53:51.045Z,86752
2017-08-28T11:54:51.694Z,87392
2017-08-28T11:55:51.376Z,89408
2017-08-28T11:56:51.704Z,91136
2017-08-28T11:57:52.034Z,93056
2017-08-28T11:58:51.393Z,92512
2017-08-28T11:59:51.418Z,91936
2017-08-28T12:00:51.416Z,91520
2017-08-28T12:01:51.408Z,90176
2017-08-28T12:02:51.620Z,87456
2017-08-28T12:03:51.741Z,84064
2017-08-28T12:04:51.427Z,83008
2017-08-28T12:05:51.457Z,86144
2017-08-28T12:06:51.441Z,87040
2017-08-28T12:07:51.788Z,88320
2017-08-28T12:08:52.104Z,90976
2017-08-28T12:09:51.779Z,89792
2017-08-28T12:10:51.459Z,86432
2017-08-28T12:11:52.122Z,83040
2017-08-28T12:12:52.118Z,77568
2017-08-28T12:13:52.124Z,76768
2017-08-28T12:14:51.164Z,75072
2017-08-28T12:15:51.813Z,76672
2017-08-28T12:16:51.503Z,77184
2017-08-28T12:17:51.825Z,79360
2017-08-28T12:18:51.832Z,85248
2017-08-28T12:19:51.512Z,86400
2017-08-28T12:20:51.846Z,91584
2017-08-28T12:21:51.855Z,90208
2017-08-28T12:22:51.216Z,87520
2017-08-28T12:23:51.541Z,94400
2017-08-28T12:24:51.545Z,89888
2017-08-28T12:25:51.873Z,85984
2017-08-28T12:26:51.885Z,85152
2017-08-28T12:27:51.895Z,84320
2017-08-28T12:28:51.574Z,86880
2017-08-28T12:29:51.908Z,86560
2017-08-28T12:30:51.915Z,93280
2017-08-28T12:31:51.925Z,96672
2017-08-28T12:32:51.928Z,94880
2017-08-28T12:33:51.289Z,90432
2017-08-28T12:34:51.614Z,85920
2017-08-28T12:35:51.949Z,84512
2017-08-28T12:36:51.958Z,79040
2017-08-28T12:37:51.643Z,84288
2017-08-28T12:38:51.969Z,81472
2017-08-28T12:39:51.702Z,77632
2017-08-28T12:40:51.339Z,75104
2017-08-28T12:41:51.984Z,75584
2017-08-28T12:42:52.316Z,75584
2017-08-28T12:43:51.683Z,74464
2017-08-28T12:44:52.006Z,73920
2017-08-28T12:45:51.692Z,72992
2017-08-28T12:46:51.703Z,73792
2017-08-28T12:47:51.705Z,74624
2017-08-28T12:48:52.037Z,76800
2017-08-28T12:49:52.366Z,78048
2017-08-28T12:50:52.049Z,80480
2017-08-28T12:51:52.060Z,82528
2017-08-28T12:52:51.739Z,83168
2017-08-28T12:53:52.083Z,80608
2017-08-28T12:54:52.081Z,79456
2017-08-28T12:55:52.077Z,73440
2017-08-28T12:56:51.766Z,71168
2017-08-28T12:57:52.094Z,78176
2017-08-28T12:58:52.107Z,81024
2017-08-28T12:59:52.109Z,77856
2017-08-28T13:00:51.474Z,77664
2017-08-28T13:01:51.801Z,66720
2017-08-28T13:02:51.807Z,72576
2017-08-28T13:03:52.131Z,71488
2017-08-28T13:04:52.141Z,74944
2017-08-28T13:05:51.502Z,78496
2017-08-28T13:06:51.829Z,77312
2017-08-28T13:07:52.483Z,79168
2017-08-28T13:08:51.841Z,80544
2017-08-28T13:09:52.176Z,84000
2017-08-28T13:10:51.868Z,83872
2017-08-28T13:11:51.864Z,83776
2017-08-28T13:12:52.193Z,84416
2017-08-28T13:13:52.204Z,81216
2017-08-28T13:14:52.198Z,78304
2017-08-28T13:15:52.529Z,78080
2017-08-28T13:16:51.578Z,78656
2017-08-28T13:17:52.228Z,82048
2017-08-28T13:18:51.918Z,83072
2017-08-28T13:19:52.252Z,82144
2017-08-28T13:20:51.609Z,82272
2017-08-28T13:21:52.579Z,83424
2017-08-28T13:22:51.958Z,75424
2017-08-28T13:23:52.316Z,78240
2017-08-28T13:24:51.954Z,78624
2017-08-28T13:25:52.295Z,82144
2017-08-28T13:26:51.977Z,79200
2017-08-28T13:27:51.977Z,77376
2017-08-28T13:28:52.303Z,75968
2017-08-28T13:29:52.304Z,74624
2017-08-28T13:30:51.672Z,76192
2017-08-28T13:31:51.677Z,78464
2017-08-28T13:32:52.003Z,74144
2017-08-28T13:33:52.330Z,75008
2017-08-28T13:34:51.696Z,75296
2017-08-28T13:35:51.700Z,74112
2017-08-28T13:36:52.054Z,70944
2017-08-28T13:37:52.672Z,67072
2017-08-28T13:38:52.357Z,65376
2017-08-28T13:39:52.368Z,65920
2017-08-28T13:40:52.050Z,66624